Terminal Aerodrome Forecast
Issued by NWS

Home | Current Version | Previous Version | Text Only | Print | Product List | Glossary On
Versions: 1 2 3 4 5 6 7 8 9 10 11 12 13 14 15 16 17 18 19 20 21 22 23
012
FTUS46 KMFR 162349
TAFRBG
TAF
KRBG 162349Z 1700/1724 VRB02KT P6SM FEW100 BKN300
     FM170800 00000KT 5SM BR FEW007 FEW140 SCT300
     FM171100 00000KT 3SM BR BKN010 BKN140 OVC200
     FM171600 17003KT P6SM SCT060 BKN090 OVC120
     FM171800 17004KT P6SM -RA SCT030 OVC060=

USA.gov is the U.S. government's official web portal to all federal, state and local government web resources and services.